Time;durP1;ratioP1;P1;durP2;ratioP2;P2;SDS_P1;SDS_P2;PMS_P1;PMS_P2;Temp;Humidity;BMP_temperature;BMP_pressure;BME280_temperature;BME280_humidity;BME280_pressure;Samples;Min_cycle;Max_cycle;Signal;HPM_P1;HPM_P2
2023/03/11 00:00:42;;;;;;;;;;;5.20;77.20;;;5.51;48.98;97627.84;5034915;27;119419;-70
2023/03/11 00:03:11;;;;;;;;;;;5.10;77.00;;;5.50;48.31;97633.63;5042899;27;119275;-70
2023/03/11 00:05:41;;;;;;;;;;;5.10;76.60;;;5.49;47.87;97632.00;5044315;27;124306;-70
2023/03/11 00:08:08;;;;;;;;;;;5.10;77.30;;;5.46;47.95;97643.56;5034858;27;123701;-70
2023/03/11 00:10:38;;;;;;;;;;;5.10;76.60;;;5.46;48.18;97638.91;5029173;27;118530;-69
2023/03/11 00:13:05;;;;;;;;;;;5.10;76.60;;;5.44;48.36;97648.56;5045423;27;117686;-69
2023/03/11 00:15:32;;;;;;;;;;;5.10;76.60;;;5.40;48.48;97661.22;5035315;27;124527;-69
2023/03/11 00:17:59;;;;;;;;;;;5.00;76.70;;;5.39;48.07;97651.41;5040120;27;124239;-70
2023/03/11 00:20:32;;;;;;;;;;;5.00;76.80;;;5.34;49.07;97668.75;5043697;27;119755;-72
2023/03/11 00:22:58;;;;;;;;;;;5.00;76.80;;;5.32;48.87;97660.03;5044430;27;119242;-69
2023/03/11 00:25:27;;;;;;;;;;;5.00;77.00;;;5.29;48.60;97666.94;5044004;27;124815;-69
2023/03/11 00:27:54;;;;;;;;;;;6.20;78.30;;;5.28;49.55;97681.72;5045964;27;123928;-69
2023/03/11 00:30:20;;;;;;;;;;;4.90;77.30;;;5.32;48.77;97674.53;5057314;27;119964;-69
2023/03/11 00:32:48;;;;;;;;;;;5.00;77.60;;;5.36;49.14;97671.19;5044039;27;119365;-70
2023/03/11 00:35:18;;;;;;;;;;;5.00;77.60;;;5.38;48.69;97660.75;5046341;27;124360;-69
2023/03/11 00:37:45;;;;;;;;;;;5.00;77.60;;;5.36;49.59;97669.25;5034980;27;124614;-69
2023/03/11 00:40:14;;;;;;;;;;;5.00;77.60;;;5.38;49.27;97658.00;5040240;27;119424;-69
2023/03/11 00:42:42;;;;;;;;;;;5.00;77.80;;;5.38;49.40;97680.72;5043336;27;118814;-72
2023/03/11 00:45:08;;;;;;;;;;;5.00;77.90;;;5.39;49.11;97687.00;5039768;27;123291;-70
2023/03/11 00:47:35;;;;;;;;;;;5.00;78.00;;;5.37;49.52;97686.50;5043473;27;124818;-70
2023/03/11 00:50:01;;;;;;;;;;;5.00;78.10;;;5.33;49.83;97689.03;5045829;27;118716;-70
2023/03/11 00:52:30;;;;;;;;;;;5.00;78.20;;;5.29;49.81;97693.50;5043981;27;118625;-69
2023/03/11 00:54:58;;;;;;;;;;;4.90;78.30;;;5.22;49.75;97704.06;5039294;27;124613;-70
2023/03/11 00:57:26;;;;;;;;;;;4.90;78.50;;;5.18;49.73;97681.94;5040633;27;123912;-69
2023/03/11 00:59:53;;;;;;;;;;;4.80;78.60;;;5.15;49.78;97709.13;5035669;27;119612;-70
2023/03/11 01:02:19;;;;;;;;;;;4.80;78.70;;;5.14;49.74;97704.78;5038224;27;118918;-69
2023/03/11 01:04:47;;;;;;;;;;;4.80;78.90;;;5.13;50.14;97703.97;5039175;27;124123;-69
2023/03/11 01:07:13;;;;;;;;;;;4.80;79.00;;;5.10;50.63;97707.28;5041280;27;124169;-69
2023/03/11 01:09:39;;;;;;;;;;;4.70;79.00;;;5.12;50.34;97712.47;5042653;27;119556;-71
2023/03/11 01:12:06;;;;;;;;;;;4.70;79.20;;;5.10;50.03;97707.28;5043028;27;118850;-69
2023/03/11 01:14:32;;;;;;;;;;;4.70;79.40;;;5.10;51.18;97707.28;5035032;27;124184;-70
2023/03/11 01:16:58;;;;;;;;;;;4.70;79.70;;;5.10;51.03;97710.03;5039505;27;124089;-70
2023/03/11 01:19:25;;;;;;;;;;;4.70;79.80;;;5.08;50.83;97702.13;5040970;27;120615;-69
2023/03/11 01:21:51;;;;;;;;;;;4.70;80.00;;;5.04;50.84;97706.56;5042383;27;119886;-69
2023/03/11 01:24:17;;;;;;;;;;;4.70;80.00;;;5.00;51.50;97702.03;5041696;27;124111;-69
2023/03/11 01:26:43;;;;;;;;;;;4.60;80.10;;;4.98;51.06;97698.78;5043547;27;123626;-70
2023/03/11 01:29:10;;;;;;;;;;;4.90;80.40;;;4.97;51.00;97708.09;5045738;27;119402;-69
2023/03/11 01:31:36;;;;;;;;;;;4.60;80.10;;;4.96;50.93;97717.41;5041731;27;118690;-69
2023/03/11 01:34:03;;;;;;;;;;;4.90;80.30;;;4.97;50.78;97727.25;5061346;27;125440;-70
2023/03/11 01:36:29;;;;;;;;;;;4.60;79.90;;;4.96;51.07;97703.72;5038438;27;124285;-69
2023/03/11 01:38:56;;;;;;;;;;;4.60;79.70;;;4.91;50.31;97720.25;5043054;27;119393;-69
2023/03/11 01:41:22;;;;;;;;;;;4.60;79.60;;;4.87;50.69;97726.34;5047637;27;118745;-69
2023/03/11 01:43:53;;;;;;;;;;;4.60;79.60;;;4.86;50.41;97723.88;5046305;27;124201;-69
2023/03/11 01:46:23;;;;;;;;;;;4.50;79.30;;;4.85;50.77;97719.53;5049324;27;123781;-69
2023/03/11 01:48:57;;;;;;;;;;;4.50;79.30;;;4.87;50.41;97731.00;5046807;27;119791;-69
2023/03/11 01:51:39;;;;;;;;;;;4.50;79.30;;;4.87;50.15;97720.06;5047352;27;118918;-69
2023/03/11 01:54:26;;;;;;;;;;;4.50;79.30;;;4.81;50.21;97711.13;5041414;27;124987;-69
2023/03/11 01:56:53;;;;;;;;;;;4.40;79.10;;;4.75;50.50;97723.25;5061587;27;124034;-70
2023/03/11 01:59:25;;;;;;;;;;;4.40;79.10;;;4.70;51.16;97697.91;5043417;27;119255;-69
2023/03/11 02:02:10;;;;;;;;;;;4.40;79.20;;;4.69;50.79;97702.56;5043982;27;119361;-72
2023/03/11 02:04:37;;;;;;;;;;;4.30;79.30;;;4.69;51.08;97699.84;5047462;27;124197;-70
2023/03/11 02:07:07;;;;;;;;;;;4.30;79.40;;;4.66;50.88;97722.34;5040651;27;123569;-72
2023/03/11 02:09:34;;;;;;;;;;;4.30;79.40;;;4.64;50.72;97738.22;5042692;27;120284;-72
2023/03/11 02:12:01;;;;;;;;;;;4.30;79.50;;;4.61;51.07;97722.41;5042132;27;119746;-70
2023/03/11 02:14:28;;;;;;;;;;;4.20;79.30;;;4.55;51.02;97723.63;5045047;27;124138;-70
2023/03/11 02:16:56;;;;;;;;;;;4.30;79.50;;;4.56;50.53;97752.59;5025809;27;123137;-69
2023/03/11 02:19:51;;;;;;;;;;;4.20;79.60;;;4.62;50.90;97734.97;5038637;27;119383;-70
2023/03/11 02:22:17;;;;;;;;;;;4.20;79.70;;;4.60;50.60;97745.44;5047126;27;117919;-70
2023/03/11 02:25:21;;;;;;;;;;;4.20;79.70;;;4.64;50.77;97744.50;5045330;27;124058;-71
2023/03/11 02:27:48;;;;;;;;;;;4.30;79.80;;;4.62;51.56;97751.38;5007834;28;123407;-70
2023/03/11 02:30:16;;;;;;;;;;;4.30;79.90;;;4.61;51.03;97741.56;5002519;28;119365;-75
2023/03/11 02:32:46;;;;;;;;;;;4.30;79.30;;;4.57;50.39;97744.09;5009148;28;119132;-70
2023/03/11 02:35:12;;;;;;;;;;;4.20;78.70;;;4.49;50.40;97746.72;4986270;28;123603;-70
2023/03/11 02:37:50;;;;;;;;;;;4.20;78.40;;;4.45;49.75;97756.59;5002847;28;123974;-70
2023/03/11 02:40:23;;;;;;;;;;;4.10;77.80;;;4.37;49.40;97747.97;5003817;28;119499;-70
2023/03/11 02:42:50;;;;;;;;;;;4.00;77.90;;;4.33;49.95;97748.88;5004695;28;118011;-70
2023/03/11 02:45:19;;;;;;;;;;;4.00;77.80;;;4.29;49.62;97764.25;5005977;28;123937;-70
2023/03/11 02:47:46;;;;;;;;;;;3.90;77.80;;;4.28;49.97;97751.69;5005380;28;124481;-69
2023/03/11 02:50:15;;;;;;;;;;;3.90;77.90;;;4.29;49.76;97754.09;5006867;28;119341;-69
2023/03/11 02:52:41;;;;;;;;;;;4.00;77.90;;;4.25;49.64;97774.97;5002875;28;118682;-69
2023/03/11 02:55:10;;;;;;;;;;;3.90;77.60;;;4.23;49.49;97782.66;5006782;28;124178;-71
2023/03/11 02:57:37;;;;;;;;;;;3.90;77.70;;;4.21;49.83;97755.59;5004867;28;124533;-69
2023/03/11 03:00:11;;;;;;;;;;;3.90;77.70;;;4.22;49.64;97764.63;5003362;28;120482;-68
2023/03/11 03:02:37;;;;;;;;;;;3.90;77.80;;;4.21;49.96;97769.25;5008215;28;120894;-69
2023/03/11 03:05:04;;;;;;;;;;;3.90;77.60;;;4.19;49.96;97770.66;5001526;28;124250;-69
2023/03/11 03:07:31;;;;;;;;;;;3.90;77.50;;;4.18;49.89;97771.78;5007113;28;123977;-69
2023/03/11 03:09:57;;;;;;;;;;;3.80;77.30;;;4.15;49.81;97761.44;5008777;28;120184;-68
2023/03/11 03:12:24;;;;;;;;;;;3.80;77.10;;;4.10;49.77;97766.97;5006961;28;118443;-69
2023/03/11 03:14:51;;;;;;;;;;;3.80;77.00;;;4.08;49.58;97766.47;5006523;28;124207;-69
2023/03/11 03:17:18;;;;;;;;;;;3.70;77.00;;;4.07;49.30;97781.25;5001942;28;122515;-71
2023/03/11 03:19:44;;;;;;;;;;;3.70;77.00;;;4.05;49.40;97781.53;4993760;28;118695;-69
2023/03/11 03:22:10;;;;;;;;;;;3.70;76.90;;;4.04;49.32;97779.91;5009374;28;118167;-69
2023/03/11 03:24:37;;;;;;;;;;;3.70;76.90;;;4.04;49.44;97779.09;5009136;28;123551;-69
2023/03/11 03:27:03;;;;;;;;;;;3.70;76.90;;;3.99;49.04;97778.06;5033326;27;123847;-69
2023/03/11 03:29:31;;;;;;;;;;;3.70;76.70;;;3.96;48.95;97788.78;5046723;27;119520;-69
2023/03/11 03:31:58;;;;;;;;;;;3.60;76.60;;;3.90;49.35;97771.63;5049546;27;118747;-69
2023/03/11 03:34:24;;;;;;;;;;;3.60;76.30;;;3.86;49.50;97777.97;5045557;27;124083;-69
2023/03/11 03:36:51;;;;;;;;;;;3.60;76.60;;;3.84;49.08;97781.00;5044490;27;123571;-69
2023/03/11 03:39:18;;;;;;;;;;;3.50;76.60;;;3.87;49.52;97780.44;5046892;27;119335;-69
2023/03/11 03:41:44;;;;;;;;;;;3.50;76.80;;;3.87;49.64;97783.16;5047686;27;118869;-70
2023/03/11 03:44:11;;;;;;;;;;;3.50;76.60;;;3.87;49.42;97785.88;5046254;27;124021;-70
2023/03/11 03:46:38;;;;;;;;;;;3.50;76.80;;;3.91;49.25;97797.03;5047215;27;123950;-69
2023/03/11 03:49:05;;;;;;;;;;;3.60;76.90;;;3.92;49.56;97804.94;5048659;27;122006;-69
2023/03/11 03:51:32;;;;;;;;;;;3.50;76.90;;;3.88;49.11;97808.56;5045908;27;120164;-69
2023/03/11 03:53:59;;;;;;;;;;;3.50;76.80;;;3.86;49.25;97811.56;5047700;27;125137;-69
2023/03/11 03:56:25;;;;;;;;;;;3.50;76.90;;;3.87;49.16;97818.69;5046860;27;123597;-69
2023/03/11 03:58:53;;;;;;;;;;;3.50;77.00;;;3.86;49.36;97827.97;5046216;27;119404;-69
2023/03/11 04:01:57;;;;;;;;;;;3.50;76.80;;;3.87;49.10;97820.56;5048878;27;118031;-68
2023/03/11 04:04:43;;;;;;;;;;;3.50;76.90;;;3.86;49.85;97816.22;5046377;27;124360;-69
2023/03/11 04:07:10;;;;;;;;;;;3.50;76.90;;;3.82;49.44;97823.41;5039082;27;123871;-72
2023/03/11 04:09:41;;;;;;;;;;;3.50;77.00;;;3.83;49.87;97828.56;5050126;27;119654;-73
2023/03/11 04:12:17;;;;;;;;;;;3.50;77.00;;;3.80;49.29;97826.41;5043935;27;117613;-70
2023/03/11 04:14:44;;;;;;;;;;;3.40;76.80;;;3.75;49.76;97829.19;5041959;27;125319;-70
2023/03/11 04:17:11;;;;;;;;;;;3.40;76.90;;;3.69;49.51;97831.19;5031443;27;123308;-70
2023/03/11 04:19:38;;;;;;;;;;;3.40;76.90;;;3.63;49.87;97834.28;5027155;27;119275;-70
2023/03/11 04:22:04;;;;;;;;;;;3.40;77.00;;;3.61;49.86;97840.03;5047133;27;118798;-70
2023/03/11 04:24:31;;;;;;;;;;;3.30;77.10;;;3.61;49.53;97837.28;5034205;27;124260;-70
2023/03/11 04:26:58;;;;;;;;;;;3.30;77.20;;;3.64;50.01;97839.44;5047736;27;124240;-71
2023/03/11 04:29:24;;;;;;;;;;;3.30;77.30;;;3.64;50.15;97835.91;5048302;27;119671;-70
2023/03/11 04:31:51;;;;;;;;;;;3.30;77.30;;;3.61;50.19;97836.47;5037640;27;119289;-69
2023/03/11 04:34:17;;;;;;;;;;;3.30;77.30;;;3.61;50.29;97836.47;5046157;27;124138;-68
2023/03/11 04:36:43;;;;;;;;;;;3.20;77.30;;;3.62;50.42;97838.91;5045484;27;124240;-69
2023/03/11 04:39:10;;;;;;;;;;;3.30;78.10;;;3.65;50.38;97837.50;5045203;27;120837;-69
2023/03/11 04:41:37;;;;;;;;;;;3.30;77.60;;;3.68;50.04;97826.84;5041497;27;119094;-69
2023/03/11 04:44:03;;;;;;;;;;;3.30;77.60;;;3.67;49.94;97830.66;5054045;27;123759;-69
2023/03/11 04:46:31;;;;;;;;;;;3.30;77.60;;;3.68;49.84;97826.00;5046733;27;123810;-69
2023/03/11 04:48:57;;;;;;;;;;;3.30;77.70;;;3.66;49.89;97828.22;5039844;27;119753;-69
2023/03/11 04:51:24;;;;;;;;;;;3.30;77.70;;;3.60;50.11;97826.66;5038161;27;119057;-74
2023/03/11 04:53:50;;;;;;;;;;;3.20;77.60;;;3.57;50.21;97828.03;5040645;27;124107;-71
2023/03/11 04:56:16;;;;;;;;;;;3.20;77.70;;;3.55;50.23;97838.47;5046923;27;123899;-71
2023/03/11 04:58:43;;;;;;;;;;;3.20;77.80;;;3.55;50.52;97835.72;5024387;27;118061;-70
2023/03/11 05:01:09;;;;;;;;;;;3.20;77.90;;;3.52;50.57;97848.03;5047942;27;118844;-70
2023/03/11 05:03:36;;;;;;;;;;;3.20;78.00;;;3.50;50.38;97844.78;5049914;27;124781;-70
2023/03/11 05:06:02;;;;;;;;;;;3.10;78.00;;;3.49;50.61;97848.63;5036753;27;123953;-70
2023/03/11 05:08:29;;;;;;;;;;;3.20;78.20;;;3.50;50.49;97844.78;5029599;28;119384;-70
2023/03/11 05:10:55;;;;;;;;;;;3.20;78.40;;;3.52;50.81;97850.78;5046368;27;118828;-71
2023/03/11 05:13:21;;;;;;;;;;;3.10;78.30;;;3.55;51.08;97852.13;5051782;27;124295;-70
2023/03/11 05:15:47;;;;;;;;;;;3.20;78.40;;;3.57;50.50;97846.34;5048296;27;124036;-70
2023/03/11 05:18:15;;;;;;;;;;;3.20;78.40;;;3.58;50.77;97853.44;5047557;27;119414;-69
2023/03/11 05:20:41;;;;;;;;;;;3.20;78.40;;;3.58;50.32;97842.53;5041202;27;119425;-69
2023/03/11 05:23:07;;;;;;;;;;;3.20;78.30;;;3.53;50.83;97852.38;5048886;27;123610;-70
2023/03/11 05:25:34;;;;;;;;;;;3.20;78.30;;;3.52;50.65;97856.25;5062854;27;123734;-70
2023/03/11 05:28:01;;;;;;;;;;;3.10;78.30;;;3.50;50.96;97858.44;5047985;27;120974;-70
2023/03/11 05:30:27;;;;;;;;;;;3.10;78.30;;;3.49;50.69;97864.16;5045607;27;120632;-70
2023/03/11 05:32:55;;;;;;;;;;;3.10;78.40;;;3.48;50.68;97865.28;5041048;27;124114;-70
2023/03/11 05:35:21;;;;;;;;;;;3.10;78.40;;;3.46;50.74;97860.09;5050356;27;124197;-70
2023/03/11 05:37:48;;;;;;;;;;;3.10;78.40;;;3.43;50.57;97879.81;5047050;27;119761;-70
2023/03/11 05:40:16;;;;;;;;;;;3.10;78.40;;;3.39;50.44;97873.31;5050287;27;118806;-70
2023/03/11 05:42:42;;;;;;;;;;;3.00;78.30;;;3.38;50.34;97870.84;5048292;27;124221;-70
2023/03/11 05:45:09;;;;;;;;;;;3.00;78.40;;;3.38;50.97;97868.94;5048667;27;124540;-70
2023/03/11 05:47:36;;;;;;;;;;;3.00;78.40;;;3.38;51.00;97868.94;5048789;27;119444;-70
2023/03/11 05:50:03;;;;;;;;;;;3.00;78.40;;;3.35;50.86;97861.31;5050264;27;118883;-70
2023/03/11 05:52:31;;;;;;;;;;;3.00;78.40;;;3.34;51.01;97856.97;5047908;27;124830;-70
2023/03/11 05:54:58;;;;;;;;;;;3.00;78.50;;;3.33;50.70;97858.06;5048281;27;122876;-70
2023/03/11 05:57:24;;;;;;;;;;;3.00;78.60;;;3.33;50.75;97866.25;5026505;27;118745;-71
2023/03/11 05:59:50;;;;;;;;;;;3.00;78.60;;;3.31;50.69;97871.19;5048391;27;118642;-70
2023/03/11 06:02:17;;;;;;;;;;;3.00;78.60;;;3.32;50.95;97881.81;5048541;27;124007;-71
2023/03/11 06:04:43;;;;;;;;;;;3.00;78.70;;;3.33;51.20;97871.69;5049539;27;123842;-70
2023/03/11 06:07:11;;;;;;;;;;;3.00;78.80;;;3.30;51.92;97883.19;5045666;27;117500;-71
2023/03/11 06:09:37;;;;;;;;;;;2.90;78.70;;;3.30;51.15;97884.03;5034421;27;118248;-71
2023/03/11 06:12:22;;;;;;;;;;;3.00;78.80;;;3.41;51.26;97895.69;5049202;27;125330;-77
2023/03/11 06:14:48;;;;;;;;;;;3.00;79.00;;;3.64;51.21;97901.44;5048162;27;123838;-70
2023/03/11 06:17:15;;;;;;;;;;;3.10;79.30;;;3.69;50.11;97887.75;5045838;27;120404;-70
2023/03/11 06:20:00;;;;;;;;;;;3.10;78.80;;;3.64;50.54;97885.88;5042699;27;119907;-70
2023/03/11 06:22:27;;;;;;;;;;;3.10;78.50;;;3.54;50.77;97897.69;5042529;27;123216;-72
2023/03/11 06:25:14;;;;;;;;;;;3.10;78.40;;;3.57;51.06;97890.84;5047178;27;124119;-70
2023/03/11 06:27:40;;;;;;;;;;;3.10;78.50;;;3.56;50.36;97885.69;5044872;27;119519;-72
2023/03/11 06:30:07;;;;;;;;;;;3.20;78.40;;;3.57;50.77;97885.38;5039462;27;118658;-70
2023/03/11 06:32:35;;;;;;;;;;;3.20;78.50;;;3.61;51.30;97896.56;5044499;27;123939;-70
2023/03/11 06:35:03;;;;;;;;;;;3.20;78.40;;;3.61;50.31;97902.84;5044778;27;124098;-69
2023/03/11 06:37:30;;;;;;;;;;;3.20;78.20;;;3.57;50.92;97903.69;5068482;27;118222;-80
2023/03/11 06:39:56;;;;;;;;;;;3.20;78.10;;;3.56;50.42;97910.28;5054511;27;117629;-69
2023/03/11 06:42:23;;;;;;;;;;;3.20;78.10;;;3.54;50.40;97916.81;5044317;27;123997;-71
2023/03/11 06:44:50;;;;;;;;;;;3.20;78.10;;;3.54;50.49;97925.00;5046166;27;124518;-70
2023/03/11 06:47:16;;;;;;;;;;;3.20;78.00;;;3.52;50.28;97921.78;5047013;27;120885;-71
2023/03/11 06:49:43;;;;;;;;;;;3.20;78.10;;;3.60;50.83;97927.69;5042689;27;118747;-70
2023/03/11 06:52:09;;;;;;;;;;;3.20;78.30;;;3.68;50.91;97943.44;5041277;27;124905;-70
2023/03/11 06:54:35;;;;;;;;;;;3.30;78.40;;;3.73;50.32;97937.94;5044629;27;123728;-70
2023/03/11 06:57:02;;;;;;;;;;;3.30;78.30;;;3.75;50.31;97938.47;5050531;27;119561;-72
2023/03/11 06:59:28;;;;;;;;;;;3.30;78.00;;;3.76;49.78;97942.81;5046886;27;119082;-71
2023/03/11 07:01:54;;;;;;;;;;;3.30;77.80;;;3.75;49.93;97952.13;5045684;27;125571;-70
2023/03/11 07:04:21;;;;;;;;;;;3.30;77.70;;;3.76;50.17;97948.28;5047116;27;124494;-71
2023/03/11 07:06:47;;;;;;;;;;;3.40;77.80;;;3.84;49.90;97949.56;5043344;27;120415;-71
2023/03/11 07:09:16;;;;;;;;;;;3.40;77.90;;;3.97;50.09;97954.34;5044548;27;119794;-71
2023/03/11 07:11:42;;;;;;;;;;;3.50;78.10;;;4.04;49.82;97952.09;5044469;27;124677;-71
2023/03/11 07:14:08;;;;;;;;;;;3.50;77.70;;;4.12;49.62;97946.00;5046719;27;123870;-72
2023/03/11 07:16:38;;;;;;;;;;;3.60;77.70;;;4.17;49.10;97953.31;5048402;27;120128;-72
2023/03/11 07:19:05;;;;;;;;;;;3.70;77.60;;;4.20;49.68;97958.22;5029019;27;117845;-71
2023/03/11 07:21:32;;;;;;;;;;;3.70;77.40;;;4.27;49.24;97961.41;5032117;27;126406;-71
2023/03/11 07:24:00;;;;;;;;;;;3.80;77.50;;;4.33;49.03;97962.97;5033540;27;124001;-71
2023/03/11 07:26:28;;;;;;;;;;;3.80;77.20;;;4.33;49.14;97956.69;5034280;27;119460;-71
2023/03/11 07:29:15;;;;;;;;;;;3.80;76.80;;;4.36;48.76;97967.03;5032946;27;117867;-71
2023/03/11 07:31:43;;;;;;;;;;;3.90;76.80;;;4.36;48.71;97962.38;5044317;27;124207;-71
2023/03/11 07:34:10;;;;;;;;;;;3.90;76.80;;;4.41;48.63;97964.25;5043684;27;123571;-73
2023/03/11 07:36:39;;;;;;;;;;;3.90;76.70;;;4.48;48.88;97970.16;5048088;27;118739;-76
2023/03/11 07:39:05;;;;;;;;;;;4.00;76.70;;;4.55;48.08;97975.28;5051745;27;118435;-71
2023/03/11 07:41:33;;;;;;;;;;;4.00;76.40;;;4.63;48.10;97982.84;5047339;27;124311;-72
2023/03/11 07:44:02;;;;;;;;;;;4.10;76.40;;;4.67;48.24;97989.31;5046748;27;123978;-72
2023/03/11 07:46:30;;;;;;;;;;;4.10;76.20;;;4.74;48.33;97973.38;5068032;27;119599;-75
2023/03/11 07:48:57;;;;;;;;;;;4.20;76.40;;;4.84;47.94;97978.72;5053142;27;118667;-72
2023/03/11 07:51:28;;;;;;;;;;;4.30;76.30;;;4.95;47.78;97978.56;5049199;27;124263;-71
2023/03/11 07:54:14;;;;;;;;;;;4.30;76.10;;;5.03;47.70;97992.41;5050155;27;123788;-70
2023/03/11 07:57:18;;;;;;;;;;;4.40;76.00;;;5.07;47.38;97989.88;5046508;27;120506;-74
2023/03/11 07:59:44;;;;;;;;;;;4.40;75.80;;;5.13;47.82;97991.44;5052125;27;120087;-71
2023/03/11 08:02:11;;;;;;;;;;;4.50;76.00;;;5.21;47.04;97999.00;5051289;27;124746;-75
2023/03/11 08:04:37;;;;;;;;;;;4.50;75.70;;;5.24;46.75;97995.66;5050520;27;123627;-72
2023/03/11 08:07:04;;;;;;;;;;;4.60;75.30;;;5.25;46.79;98000.00;5045547;27;119666;-76
2023/03/11 08:09:30;;;;;;;;;;;4.60;75.00;;;5.27;47.41;97996.97;5041956;27;117443;-72
2023/03/11 08:11:57;;;;;;;;;;;4.70;75.10;;;5.27;47.21;97997.78;5050896;27;124836;-73
2023/03/11 08:14:42;;;;;;;;;;;4.70;74.70;;;5.29;47.10;97992.00;5050031;27;124142;-73
2023/03/11 08:17:09;;;;;;;;;;;4.70;74.70;;;5.26;46.44;97996.16;5042279;27;118325;-72
2023/03/11 08:19:35;;;;;;;;;;;4.70;74.50;;;5.26;46.67;98004.34;5040049;27;119134;-73
2023/03/11 08:22:02;;;;;;;;;;;4.70;74.30;;;5.24;46.56;98005.78;5046479;27;123865;-74
2023/03/11 08:24:29;;;;;;;;;;;4.70;74.30;;;5.29;46.26;98003.78;5039246;27;124293;-71
2023/03/11 08:26:55;;;;;;;;;;;4.80;74.50;;;5.31;46.11;98008.94;5038839;27;120090;-71
2023/03/11 08:29:23;;;;;;;;;;;4.80;73.90;;;5.32;45.63;98011.41;5045932;27;119169;-72
2023/03/11 08:31:50;;;;;;;;;;;4.80;73.70;;;5.36;46.65;98010.81;5037514;27;124058;-71
2023/03/11 08:34:16;;;;;;;;;;;4.80;73.70;;;5.38;45.93;98017.63;5043769;27;124130;-71
2023/03/11 08:36:42;;;;;;;;;;;4.90;73.90;;;5.44;46.08;98008.19;5042854;27;119520;-72
2023/03/11 08:39:09;;;;;;;;;;;4.90;73.80;;;5.48;45.65;98019.38;5053059;27;118415;-72
2023/03/11 08:41:36;;;;;;;;;;;4.90;73.30;;;5.45;45.54;98030.94;5044804;27;123632;-72
2023/03/11 08:44:02;;;;;;;;;;;4.90;73.20;;;5.45;45.91;98020.78;5049443;27;123032;-72
2023/03/11 08:46:33;;;;;;;;;;;4.90;73.00;;;5.45;44.84;98036.41;5042506;27;120788;-72
2023/03/11 08:49:00;;;;;;;;;;;4.90;72.70;;;5.43;45.62;98033.16;5045053;27;119779;-72
2023/03/11 08:51:29;;;;;;;;;;;4.90;72.80;;;5.46;45.42;98032.56;5045085;27;124849;-72
2023/03/11 08:53:55;;;;;;;;;;;4.90;72.60;;;5.51;45.65;98037.97;5043732;27;123958;-72
2023/03/11 08:56:21;;;;;;;;;;;5.00;73.10;;;5.54;45.36;98034.63;5048024;27;119534;-73
2023/03/11 08:58:48;;;;;;;;;;;5.00;72.30;;;5.56;45.12;98037.06;5047113;27;118718;-72
2023/03/11 09:01:14;;;;;;;;;;;5.00;72.20;;;5.59;45.58;98040.03;5047233;27;124427;-72
2023/03/11 09:03:40;;;;;;;;;;;5.00;72.60;;;5.58;45.33;98034.84;5045754;27;124416;-74
2023/03/11 09:06:10;;;;;;;;;;;5.00;72.30;;;5.61;45.72;98035.03;5048032;27;118291;-72
2023/03/11 09:08:36;;;;;;;;;;;5.00;72.70;;;5.64;45.04;98039.97;5049077;27;118936;-70
2023/03/11 09:11:04;;;;;;;;;;;5.00;72.50;;;5.68;45.35;98035.50;5047572;27;123655;-70
2023/03/11 09:13:30;;;;;;;;;;;5.10;72.50;;;5.75;45.73;98040.59;5046052;27;123931;-70
2023/03/11 09:15:56;;;;;;;;;;;5.10;72.90;;;5.80;45.40;98042.41;5043439;27;119619;-71
2023/03/11 09:18:23;;;;;;;;;;;5.20;72.80;;;5.82;45.19;98049.22;5047726;27;118754;-74
2023/03/11 09:20:49;;;;;;;;;;;5.20;72.40;;;5.80;44.78;98047.91;5043054;27;124204;-71
2023/03/11 09:23:17;;;;;;;;;;;5.20;71.70;;;5.75;44.83;98052.38;5045640;27;124080;-71
2023/03/11 09:25:43;;;;;;;;;;;5.20;71.70;;;5.71;44.76;98048.59;5038639;27;119354;-71
2023/03/11 09:28:09;;;;;;;;;;;5.20;71.70;;;5.73;45.17;98054.59;5048288;27;118678;-71
2023/03/11 09:30:36;;;;;;;;;;;5.20;72.00;;;5.79;44.71;98060.00;5050857;27;124515;-70
2023/03/11 09:33:03;;;;;;;;;;;5.30;72.30;;;5.84;44.76;98060.72;5049672;27;123890;-70
2023/03/11 09:35:29;;;;;;;;;;;5.30;71.50;;;5.87;44.37;98060.13;5048179;27;120507;-71
2023/03/11 09:37:55;;;;;;;;;;;5.30;71.60;;;5.94;43.97;98065.25;5046679;27;120284;-71
2023/03/11 09:40:26;;;;;;;;;;;5.40;70.80;;;5.93;43.68;98060.84;5048127;27;124199;-72
2023/03/11 09:43:06;;;;;;;;;;;5.40;69.80;;;5.95;43.78;98055.91;5032985;27;123816;-71
2023/03/11 09:45:36;;;;;;;;;;;5.40;70.30;;;5.92;44.24;98056.47;5033192;27;118502;-71
2023/03/11 09:48:15;;;;;;;;;;;5.40;70.30;;;5.96;43.85;98063.00;5044399;27;119120;-70
2023/03/11 09:50:54;;;;;;;;;;;5.40;70.60;;;5.97;42.80;98068.22;5049888;27;124350;-71
2023/03/11 09:53:43;;;;;;;;;;;5.40;69.80;;;6.01;43.08;98056.63;5054301;27;124469;-73
2023/03/11 09:56:14;;;;;;;;;;;5.50;69.80;;;6.04;43.30;98053.28;5052311;27;118730;-75
2023/03/11 09:58:50;;;;;;;;;;;5.50;69.70;;;6.05;43.31;98055.72;5047631;27;119095;-71
2023/03/11 10:01:36;;;;;;;;;;;5.50;69.50;;;6.03;43.35;98049.72;5046650;27;124766;-70
2023/03/11 10:04:25;;;;;;;;;;;5.50;69.30;;;6.04;43.48;98048.59;5049331;27;124161;-70
2023/03/11 10:06:52;;;;;;;;;;;5.60;69.60;;;6.02;42.79;98050.84;5043943;27;119493;-73
2023/03/11 10:09:36;;;;;;;;;;;5.60;68.80;;;6.05;43.05;98055.72;5038172;27;119412;-71
2023/03/11 10:12:30;;;;;;;;;;;5.60;69.20;;;6.11;43.65;98049.03;5040944;27;124406;-70
2023/03/11 10:15:11;;;;;;;;;;;5.60;69.40;;;6.12;43.22;98058.88;5045441;27;123926;-72
2023/03/11 10:18:19;;;;;;;;;;;5.60;69.10;;;6.12;42.73;98047.91;5046128;27;118583;-71
2023/03/11 10:21:13;;;;;;;;;;;5.60;68.70;;;6.14;43.49;98059.41;4988019;28;118946;-71
2023/03/11 10:24:02;;;;;;;;;;;5.60;68.70;;;6.17;42.52;98055.25;5044016;27;124546;-73
2023/03/11 10:26:36;;;;;;;;;;;5.70;68.10;;;6.19;41.89;98051.09;5042641;27;123563;-71
2023/03/11 10:29:06;;;;;;;;;;;5.70;68.10;;;6.27;42.49;98057.81;5058294;27;120390;-70
2023/03/11 10:31:41;;;;;;;;;;;5.70;67.80;;;6.31;41.80;98058.81;5047946;27;119633;-70
2023/03/11 10:34:20;;;;;;;;;;;5.80;67.50;;;6.35;40.98;98048.88;5045384;27;124340;-70
2023/03/11 10:37:11;;;;;;;;;;;5.80;67.00;;;6.44;41.04;98045.41;5043275;27;123011;-71
2023/03/11 10:39:38;;;;;;;;;;;5.90;66.50;;;6.48;40.87;98047.25;5026065;27;119257;-71
2023/03/11 10:42:11;;;;;;;;;;;6.00;65.60;;;6.59;40.39;98047.88;5038666;27;118904;-74
2023/03/11 10:44:39;;;;;;;;;;;6.10;65.20;;;6.64;39.93;98045.84;5042347;27;123916;-75
2023/03/11 10:47:13;;;;;;;;;;;6.10;64.40;;;6.73;39.92;98040.44;5032211;27;122770;-77
2023/03/11 10:49:41;;;;;;;;;;;6.20;64.40;;;6.78;39.31;98042.28;5045137;27;119395;-70
2023/03/11 10:52:08;;;;;;;;;;;6.20;63.50;;;6.78;39.22;98043.09;5045007;27;117770;-70
2023/03/11 10:54:45;;;;;;;;;;;6.30;63.20;;;6.80;38.75;98043.59;5044342;27;124476;-71
2023/03/11 10:57:25;;;;;;;;;;;7.10;63.30;;;6.81;39.22;98039.72;5039194;27;124005;-70
2023/03/11 10:59:54;;;;;;;;;;;6.30;63.00;;;6.86;39.49;98042.38;5037854;27;120284;-70
2023/03/11 11:02:48;;;;;;;;;;;6.30;63.20;;;6.92;39.17;98042.25;5033670;27;118929;-70
2023/03/11 11:05:21;;;;;;;;;;;6.40;63.20;;;6.99;39.60;98048.16;5037596;27;124295;-74
2023/03/11 11:08:06;;;;;;;;;;;6.50;63.40;;;7.13;39.72;98048.94;5035693;27;123815;-70
2023/03/11 11:10:35;;;;;;;;;;;6.50;63.60;;;7.29;38.83;98049.41;5040973;27;119258;-70
2023/03/11 11:13:19;;;;;;;;;;;6.70;63.70;;;7.44;38.57;98046.31;5039458;27;118829;-71
2023/03/11 11:15:58;;;;;;;;;;;6.80;62.80;;;7.57;38.44;98052.06;5032019;27;124242;-71
2023/03/11 11:18:31;;;;;;;;;;;6.90;63.10;;;7.72;38.32;98047.03;5045332;27;123784;-70
2023/03/11 11:21:00;;;;;;;;;;;7.00;63.20;;;7.87;37.84;98043.09;5034960;27;119939;-70
2023/03/11 11:23:30;;;;;;;;;;;7.20;62.20;;;7.95;37.76;98044.25;5037357;27;120126;-70
2023/03/11 11:25:59;;;;;;;;;;;7.30;61.60;;;8.07;37.69;98035.44;5043344;27;124157;-71
2023/03/11 11:28:25;;;;;;;;;;;7.40;62.00;;;8.16;36.99;98044.53;5018683;27;123132;-71
2023/03/11 11:31:14;;;;;;;;;;;7.50;60.60;;;8.16;36.75;98050.03;5048003;27;119422;-70
2023/03/11 11:34:25;;;;;;;;;;;7.50;60.30;;;8.10;36.91;98046.63;5044589;27;117135;-71
2023/03/11 11:36:51;;;;;;;;;;;7.60;60.10;;;8.06;37.06;98042.88;5045449;27;123969;-70